sensor_id;sensor_type;location;lat;lon;timestamp;P1;durP1;ratioP1;P2;durP2;ratioP2
13114;SDS011;6623;52.120;8.660;2023-02-11T00:00:33;41.53;;;26.60;;
13114;SDS011;6623;52.120;8.660;2023-02-11T00:02:59;42.43;;;27.03;;
13114;SDS011;6623;52.120;8.660;2023-02-11T00:05:27;44.40;;;27.07;;
13114;SDS011;6623;52.120;8.660;2023-02-11T00:07:53;40.03;;;26.83;;
13114;SDS011;6623;52.120;8.660;2023-02-11T00:10:18;42.47;;;27.13;;
13114;SDS011;6623;52.120;8.660;2023-02-11T00:12:44;39.00;;;26.27;;
13114;SDS011;6623;52.120;8.660;2023-02-11T00:15:10;44.00;;;27.53;;
13114;SDS011;6623;52.120;8.660;2023-02-11T00:17:35;45.67;;;28.60;;
13114;SDS011;6623;52.120;8.660;2023-02-11T00:20:01;40.13;;;26.07;;
13114;SDS011;6623;52.120;8.660;2023-02-11T00:22:26;40.73;;;26.60;;
13114;SDS011;6623;52.120;8.660;2023-02-11T00:24:52;43.00;;;27.57;;
13114;SDS011;6623;52.120;8.660;2023-02-11T00:27:18;46.27;;;27.77;;
13114;SDS011;6623;52.120;8.660;2023-02-11T00:29:43;41.00;;;27.03;;
13114;SDS011;6623;52.120;8.660;2023-02-11T00:32:09;42.37;;;28.87;;
13114;SDS011;6623;52.120;8.660;2023-02-11T00:34:35;41.23;;;27.83;;
13114;SDS011;6623;52.120;8.660;2023-02-11T00:37:01;40.87;;;27.37;;
13114;SDS011;6623;52.120;8.660;2023-02-11T00:39:27;41.63;;;28.37;;
13114;SDS011;6623;52.120;8.660;2023-02-11T00:41:53;42.10;;;29.37;;
13114;SDS011;6623;52.120;8.660;2023-02-11T00:44:19;41.87;;;28.40;;
13114;SDS011;6623;52.120;8.660;2023-02-11T00:46:45;44.37;;;28.90;;
13114;SDS011;6623;52.120;8.660;2023-02-11T00:49:10;45.17;;;29.30;;
13114;SDS011;6623;52.120;8.660;2023-02-11T00:51:36;45.67;;;27.90;;
13114;SDS011;6623;52.120;8.660;2023-02-11T00:54:02;43.30;;;28.43;;
13114;SDS011;6623;52.120;8.660;2023-02-11T00:56:27;43.93;;;28.70;;
13114;SDS011;6623;52.120;8.660;2023-02-11T00:58:53;40.90;;;27.47;;
13114;SDS011;6623;52.120;8.660;2023-02-11T01:01:18;44.97;;;27.07;;
13114;SDS011;6623;52.120;8.660;2023-02-11T01:03:47;42.83;;;28.07;;
13114;SDS011;6623;52.120;8.660;2023-02-11T01:06:12;41.47;;;27.10;;
13114;SDS011;6623;52.120;8.660;2023-02-11T01:08:38;41.57;;;27.43;;
13114;SDS011;6623;52.120;8.660;2023-02-11T01:11:05;40.43;;;28.17;;
13114;SDS011;6623;52.120;8.660;2023-02-11T01:13:35;40.67;;;28.07;;
13114;SDS011;6623;52.120;8.660;2023-02-11T01:16:07;41.67;;;26.43;;
13114;SDS011;6623;52.120;8.660;2023-02-11T01:18:34;39.37;;;26.53;;
13114;SDS011;6623;52.120;8.660;2023-02-11T01:21:03;40.67;;;28.20;;
13114;SDS011;6623;52.120;8.660;2023-02-11T01:23:29;42.43;;;27.57;;
13114;SDS011;6623;52.120;8.660;2023-02-11T01:25:55;44.73;;;27.67;;
13114;SDS011;6623;52.120;8.660;2023-02-11T01:28:22;42.20;;;27.87;;
13114;SDS011;6623;52.120;8.660;2023-02-11T01:30:49;42.13;;;28.33;;
13114;SDS011;6623;52.120;8.660;2023-02-11T01:33:15;43.73;;;27.57;;
13114;SDS011;6623;52.120;8.660;2023-02-11T01:35:41;43.73;;;28.80;;
13114;SDS011;6623;52.120;8.660;2023-02-11T01:38:07;43.30;;;27.47;;
13114;SDS011;6623;52.120;8.660;2023-02-11T01:40:56;40.20;;;26.67;;
13114;SDS011;6623;52.120;8.660;2023-02-11T01:43:23;41.53;;;27.20;;
13114;SDS011;6623;52.120;8.660;2023-02-11T01:48:30;38.40;;;26.30;;
13114;SDS011;6623;52.120;8.660;2023-02-11T01:51:06;44.53;;;26.13;;
13114;SDS011;6623;52.120;8.660;2023-02-11T01:53:37;41.93;;;26.93;;
13114;SDS011;6623;52.120;8.660;2023-02-11T01:56:21;40.00;;;26.00;;
13114;SDS011;6623;52.120;8.660;2023-02-11T01:59:29;37.53;;;24.90;;
13114;SDS011;6623;52.120;8.660;2023-02-11T02:01:59;38.70;;;25.93;;
13114;SDS011;6623;52.120;8.660;2023-02-11T02:04:30;42.00;;;26.93;;
13114;SDS011;6623;52.120;8.660;2023-02-11T02:07:04;40.87;;;26.33;;
13114;SDS011;6623;52.120;8.660;2023-02-11T02:09:37;38.40;;;26.00;;
13114;SDS011;6623;52.120;8.660;2023-02-11T02:12:11;38.77;;;26.53;;
13114;SDS011;6623;52.120;8.660;2023-02-11T02:14:37;40.80;;;26.67;;
13114;SDS011;6623;52.120;8.660;2023-02-11T02:17:04;43.83;;;26.33;;
13114;SDS011;6623;52.120;8.660;2023-02-11T02:19:42;45.17;;;28.03;;
13114;SDS011;6623;52.120;8.660;2023-02-11T02:34:32;43.97;;;27.47;;
13114;SDS011;6623;52.120;8.660;2023-02-11T02:37:50;42.93;;;27.53;;
13114;SDS011;6623;52.120;8.660;2023-02-11T02:39:56;48.43;;;28.80;;
13114;SDS011;6623;52.120;8.660;2023-02-11T02:42:29;43.77;;;26.43;;
13114;SDS011;6623;52.120;8.660;2023-02-11T02:44:58;44.50;;;27.77;;
13114;SDS011;6623;52.120;8.660;2023-02-11T02:47:24;42.80;;;27.17;;
13114;SDS011;6623;52.120;8.660;2023-02-11T02:49:50;43.93;;;27.70;;
13114;SDS011;6623;52.120;8.660;2023-02-11T02:52:24;40.93;;;27.73;;
13114;SDS011;6623;52.120;8.660;2023-02-11T03:00:20;40.77;;;27.67;;
13114;SDS011;6623;52.120;8.660;2023-02-11T03:03:16;43.37;;;28.40;;
13114;SDS011;6623;52.120;8.660;2023-02-11T03:08:29;39.47;;;26.43;;
13114;SDS011;6623;52.120;8.660;2023-02-11T03:11:06;46.20;;;27.63;;
13114;SDS011;6623;52.120;8.660;2023-02-11T03:13:35;43.43;;;28.27;;
13114;SDS011;6623;52.120;8.660;2023-02-11T03:16:08;49.70;;;29.27;;
13114;SDS011;6623;52.120;8.660;2023-02-11T03:18:41;50.13;;;28.33;;
13114;SDS011;6623;52.120;8.660;2023-02-11T03:21:11;45.93;;;28.30;;
13114;SDS011;6623;52.120;8.660;2023-02-11T03:23:43;51.17;;;29.37;;
13114;SDS011;6623;52.120;8.660;2023-02-11T03:26:17;43.27;;;28.13;;
13114;SDS011;6623;52.120;8.660;2023-02-11T03:29:02;48.60;;;28.83;;
13114;SDS011;6623;52.120;8.660;2023-02-11T03:37:01;45.57;;;29.53;;
13114;SDS011;6623;52.120;8.660;2023-02-11T03:39:43;46.97;;;30.10;;
13114;SDS011;6623;52.120;8.660;2023-02-11T03:42:11;48.60;;;29.40;;
13114;SDS011;6623;52.120;8.660;2023-02-11T03:44:39;47.67;;;30.10;;
13114;SDS011;6623;52.120;8.660;2023-02-11T03:47:26;49.87;;;28.37;;
13114;SDS011;6623;52.120;8.660;2023-02-11T03:49:54;46.03;;;28.83;;
13114;SDS011;6623;52.120;8.660;2023-02-11T03:52:23;53.67;;;30.57;;
13114;SDS011;6623;52.120;8.660;2023-02-11T03:54:56;50.40;;;29.57;;
13114;SDS011;6623;52.120;8.660;2023-02-11T03:57:26;46.13;;;29.20;;
13114;SDS011;6623;52.120;8.660;2023-02-11T03:59:58;41.33;;;27.63;;
13114;SDS011;6623;52.120;8.660;2023-02-11T04:02:25;44.97;;;27.47;;
13114;SDS011;6623;52.120;8.660;2023-02-11T04:04:53;42.80;;;27.63;;
13114;SDS011;6623;52.120;8.660;2023-02-11T04:07:19;45.73;;;28.70;;
13114;SDS011;6623;52.120;8.660;2023-02-11T04:09:44;40.83;;;27.57;;
13114;SDS011;6623;52.120;8.660;2023-02-11T04:12:10;45.47;;;28.00;;
13114;SDS011;6623;52.120;8.660;2023-02-11T04:14:35;50.77;;;27.70;;
13114;SDS011;6623;52.120;8.660;2023-02-11T04:17:01;41.07;;;27.43;;
13114;SDS011;6623;52.120;8.660;2023-02-11T04:19:27;38.70;;;27.03;;
13114;SDS011;6623;52.120;8.660;2023-02-11T04:21:53;43.20;;;27.57;;
13114;SDS011;6623;52.120;8.660;2023-02-11T04:24:21;44.13;;;26.17;;
13114;SDS011;6623;52.120;8.660;2023-02-11T04:26:53;41.53;;;27.27;;
13114;SDS011;6623;52.120;8.660;2023-02-11T04:29:24;41.37;;;27.47;;
13114;SDS011;6623;52.120;8.660;2023-02-11T04:31:50;43.90;;;26.77;;
13114;SDS011;6623;52.120;8.660;2023-02-11T04:34:16;39.73;;;25.10;;
13114;SDS011;6623;52.120;8.660;2023-02-11T04:36:42;41.00;;;24.63;;
13114;SDS011;6623;52.120;8.660;2023-02-11T04:39:07;38.23;;;26.23;;
13114;SDS011;6623;52.120;8.660;2023-02-11T04:41:33;38.80;;;24.67;;
13114;SDS011;6623;52.120;8.660;2023-02-11T04:43:58;37.83;;;24.80;;
13114;SDS011;6623;52.120;8.660;2023-02-11T04:46:24;40.60;;;24.87;;
13114;SDS011;6623;52.120;8.660;2023-02-11T04:48:50;41.57;;;24.00;;
13114;SDS011;6623;52.120;8.660;2023-02-11T04:51:15;39.40;;;24.30;;
13114;SDS011;6623;52.120;8.660;2023-02-11T04:53:44;37.57;;;24.10;;
13114;SDS011;6623;52.120;8.660;2023-02-11T04:56:09;37.60;;;23.77;;
13114;SDS011;6623;52.120;8.660;2023-02-11T04:58:35;36.17;;;23.63;;
13114;SDS011;6623;52.120;8.660;2023-02-11T05:01:04;35.97;;;22.77;;
13114;SDS011;6623;52.120;8.660;2023-02-11T05:03:44;34.23;;;23.43;;
13114;SDS011;6623;52.120;8.660;2023-02-11T05:06:09;39.57;;;22.33;;
13114;SDS011;6623;52.120;8.660;2023-02-11T05:08:35;35.67;;;22.87;;
13114;SDS011;6623;52.120;8.660;2023-02-11T05:11:01;33.50;;;21.87;;
13114;SDS011;6623;52.120;8.660;2023-02-11T05:13:27;33.70;;;21.70;;
13114;SDS011;6623;52.120;8.660;2023-02-11T05:15:53;37.57;;;22.23;;
13114;SDS011;6623;52.120;8.660;2023-02-11T05:18:22;34.47;;;22.40;;
13114;SDS011;6623;52.120;8.660;2023-02-11T05:20:47;34.77;;;22.13;;
13114;SDS011;6623;52.120;8.660;2023-02-11T05:23:13;34.87;;;22.10;;
13114;SDS011;6623;52.120;8.660;2023-02-11T05:25:39;35.97;;;22.50;;
13114;SDS011;6623;52.120;8.660;2023-02-11T05:28:07;36.77;;;21.20;;
13114;SDS011;6623;52.120;8.660;2023-02-11T05:30:33;34.57;;;22.00;;
13114;SDS011;6623;52.120;8.660;2023-02-11T05:32:58;33.23;;;21.87;;
13114;SDS011;6623;52.120;8.660;2023-02-11T05:35:24;33.87;;;21.40;;
13114;SDS011;6623;52.120;8.660;2023-02-11T05:37:49;30.93;;;22.17;;
13114;SDS011;6623;52.120;8.660;2023-02-11T05:40:15;35.27;;;22.30;;
13114;SDS011;6623;52.120;8.660;2023-02-11T05:42:41;35.57;;;21.13;;
13114;SDS011;6623;52.120;8.660;2023-02-11T05:45:07;34.00;;;21.40;;
13114;SDS011;6623;52.120;8.660;2023-02-11T05:47:32;30.23;;;20.97;;
13114;SDS011;6623;52.120;8.660;2023-02-11T05:49:58;34.97;;;21.97;;
13114;SDS011;6623;52.120;8.660;2023-02-11T05:52:23;32.70;;;22.30;;
13114;SDS011;6623;52.120;8.660;2023-02-11T05:54:49;32.17;;;21.13;;
13114;SDS011;6623;52.120;8.660;2023-02-11T05:57:15;35.17;;;21.20;;
13114;SDS011;6623;52.120;8.660;2023-02-11T05:59:41;35.80;;;21.47;;
13114;SDS011;6623;52.120;8.660;2023-02-11T06:02:07;36.93;;;22.30;;
13114;SDS011;6623;52.120;8.660;2023-02-11T06:04:33;37.47;;;21.33;;
13114;SDS011;6623;52.120;8.660;2023-02-11T06:07:05;34.67;;;21.23;;
13114;SDS011;6623;52.120;8.660;2023-02-11T06:09:31;31.70;;;21.27;;
13114;SDS011;6623;52.120;8.660;2023-02-11T06:12:02;32.87;;;20.47;;
13114;SDS011;6623;52.120;8.660;2023-02-11T06:14:28;33.60;;;21.20;;
13114;SDS011;6623;52.120;8.660;2023-02-11T06:16:59;37.97;;;21.90;;
13114;SDS011;6623;52.120;8.660;2023-02-11T06:19:25;35.03;;;22.03;;
13114;SDS011;6623;52.120;8.660;2023-02-11T06:21:51;33.47;;;20.93;;
13114;SDS011;6623;52.120;8.660;2023-02-11T06:24:16;32.47;;;20.90;;
13114;SDS011;6623;52.120;8.660;2023-02-11T06:26:42;35.67;;;21.93;;
13114;SDS011;6623;52.120;8.660;2023-02-11T06:29:10;32.80;;;22.00;;
13114;SDS011;6623;52.120;8.660;2023-02-11T06:31:36;35.27;;;21.83;;
13114;SDS011;6623;52.120;8.660;2023-02-11T06:34:03;38.50;;;21.73;;
13114;SDS011;6623;52.120;8.660;2023-02-11T06:36:29;35.40;;;20.57;;
13114;SDS011;6623;52.120;8.660;2023-02-11T06:38:54;33.60;;;22.20;;
13114;SDS011;6623;52.120;8.660;2023-02-11T06:41:20;29.83;;;21.30;;
13114;SDS011;6623;52.120;8.660;2023-02-11T06:43:46;31.27;;;21.57;;
13114;SDS011;6623;52.120;8.660;2023-02-11T06:46:12;39.57;;;22.23;;
13114;SDS011;6623;52.120;8.660;2023-02-11T06:48:38;31.80;;;21.73;;
13114;SDS011;6623;52.120;8.660;2023-02-11T06:51:05;36.53;;;22.23;;
13114;SDS011;6623;52.120;8.660;2023-02-11T06:53:33;31.73;;;20.97;;
13114;SDS011;6623;52.120;8.660;2023-02-11T06:56:04;38.57;;;22.37;;
13114;SDS011;6623;52.120;8.660;2023-02-11T06:58:31;33.50;;;21.60;;
13114;SDS011;6623;52.120;8.660;2023-02-11T07:00:57;35.43;;;22.67;;
13114;SDS011;6623;52.120;8.660;2023-02-11T07:03:24;40.07;;;21.87;;
13114;SDS011;6623;52.120;8.660;2023-02-11T07:05:50;31.03;;;21.63;;
13114;SDS011;6623;52.120;8.660;2023-02-11T07:08:15;39.37;;;22.30;;
13114;SDS011;6623;52.120;8.660;2023-02-11T07:10:41;41.47;;;22.70;;
13114;SDS011;6623;52.120;8.660;2023-02-11T07:13:06;37.20;;;22.33;;
13114;SDS011;6623;52.120;8.660;2023-02-11T07:15:32;34.83;;;22.57;;
13114;SDS011;6623;52.120;8.660;2023-02-11T07:17:58;36.40;;;22.00;;
13114;SDS011;6623;52.120;8.660;2023-02-11T07:20:24;42.93;;;22.83;;
13114;SDS011;6623;52.120;8.660;2023-02-11T07:22:53;36.90;;;23.07;;
13114;SDS011;6623;52.120;8.660;2023-02-11T07:25:18;34.73;;;22.33;;
13114;SDS011;6623;52.120;8.660;2023-02-11T07:27:44;33.77;;;22.13;;
13114;SDS011;6623;52.120;8.660;2023-02-11T07:30:10;30.97;;;21.70;;
13114;SDS011;6623;52.120;8.660;2023-02-11T07:32:36;34.07;;;21.33;;
13114;SDS011;6623;52.120;8.660;2023-02-11T07:35:01;41.17;;;22.77;;
13114;SDS011;6623;52.120;8.660;2023-02-11T07:37:27;34.67;;;22.00;;
13114;SDS011;6623;52.120;8.660;2023-02-11T07:40:02;39.17;;;22.93;;
13114;SDS011;6623;52.120;8.660;2023-02-11T07:42:28;36.07;;;22.73;;
13114;SDS011;6623;52.120;8.660;2023-02-11T07:44:53;37.07;;;22.90;;
13114;SDS011;6623;52.120;8.660;2023-02-11T07:47:19;38.17;;;22.77;;
13114;SDS011;6623;52.120;8.660;2023-02-11T07:49:45;38.97;;;25.07;;
13114;SDS011;6623;52.120;8.660;2023-02-11T07:52:11;40.07;;;22.83;;
13114;SDS011;6623;52.120;8.660;2023-02-11T07:54:37;36.47;;;23.13;;
13114;SDS011;6623;52.120;8.660;2023-02-11T07:57:02;39.50;;;23.03;;
13114;SDS011;6623;52.120;8.660;2023-02-11T07:59:28;38.67;;;23.90;;
13114;SDS011;6623;52.120;8.660;2023-02-11T08:01:53;41.10;;;24.60;;
13114;SDS011;6623;52.120;8.660;2023-02-11T08:04:19;39.93;;;23.30;;
13114;SDS011;6623;52.120;8.660;2023-02-11T08:06:44;39.80;;;24.07;;
13114;SDS011;6623;52.120;8.660;2023-02-11T08:09:13;37.87;;;23.03;;
13114;SDS011;6623;52.120;8.660;2023-02-11T08:11:40;38.83;;;24.37;;
13114;SDS011;6623;52.120;8.660;2023-02-11T08:14:07;39.87;;;24.37;;
13114;SDS011;6623;52.120;8.660;2023-02-11T08:16:33;39.73;;;23.53;;
13114;SDS011;6623;52.120;8.660;2023-02-11T08:19:05;39.87;;;24.30;;
13114;SDS011;6623;52.120;8.660;2023-02-11T08:21:32;39.57;;;26.03;;
13114;SDS011;6623;52.120;8.660;2023-02-11T08:23:58;38.50;;;24.53;;
13114;SDS011;6623;52.120;8.660;2023-02-11T08:26:26;43.10;;;24.93;;
13114;SDS011;6623;52.120;8.660;2023-02-11T08:28:53;37.87;;;22.97;;
13114;SDS011;6623;52.120;8.660;2023-02-11T08:31:21;40.73;;;23.83;;
13114;SDS011;6623;52.120;8.660;2023-02-11T08:33:48;38.37;;;24.23;;
13114;SDS011;6623;52.120;8.660;2023-02-11T08:36:19;36.97;;;25.13;;
13114;SDS011;6623;52.120;8.660;2023-02-11T08:38:47;42.70;;;25.10;;
13114;SDS011;6623;52.120;8.660;2023-02-11T08:41:12;36.47;;;24.80;;
13114;SDS011;6623;52.120;8.660;2023-02-11T08:43:39;39.03;;;24.97;;
13114;SDS011;6623;52.120;8.660;2023-02-11T08:46:06;37.53;;;23.90;;
13114;SDS011;6623;52.120;8.660;2023-02-11T08:48:32;35.37;;;23.93;;
13114;SDS011;6623;52.120;8.660;2023-02-11T08:50:58;40.00;;;25.27;;
13114;SDS011;6623;52.120;8.660;2023-02-11T08:53:24;38.20;;;24.73;;
13114;SDS011;6623;52.120;8.660;2023-02-11T08:55:51;45.97;;;25.90;;
13114;SDS011;6623;52.120;8.660;2023-02-11T08:58:18;41.13;;;27.23;;
13114;SDS011;6623;52.120;8.660;2023-02-11T09:00:45;43.63;;;26.17;;
13114;SDS011;6623;52.120;8.660;2023-02-11T09:03:11;40.87;;;25.47;;
13114;SDS011;6623;52.120;8.660;2023-02-11T09:05:41;43.10;;;26.07;;
13114;SDS011;6623;52.120;8.660;2023-02-11T09:08:11;39.70;;;25.63;;
13114;SDS011;6623;52.120;8.660;2023-02-11T09:10:37;39.90;;;25.27;;
13114;SDS011;6623;52.120;8.660;2023-02-11T09:13:03;44.43;;;25.50;;
13114;SDS011;6623;52.120;8.660;2023-02-11T09:15:29;42.43;;;26.00;;
13114;SDS011;6623;52.120;8.660;2023-02-11T09:17:55;42.00;;;25.73;;
13114;SDS011;6623;52.120;8.660;2023-02-11T09:20:21;39.30;;;25.90;;
13114;SDS011;6623;52.120;8.660;2023-02-11T09:22:47;42.77;;;25.37;;
13114;SDS011;6623;52.120;8.660;2023-02-11T09:25:15;37.20;;;23.27;;
13114;SDS011;6623;52.120;8.660;2023-02-11T09:27:40;36.40;;;23.77;;
13114;SDS011;6623;52.120;8.660;2023-02-11T09:30:06;41.27;;;25.40;;
13114;SDS011;6623;52.120;8.660;2023-02-11T09:32:32;41.17;;;24.80;;
13114;SDS011;6623;52.120;8.660;2023-02-11T09:34:58;38.80;;;25.13;;
13114;SDS011;6623;52.120;8.660;2023-02-11T09:37:23;43.00;;;25.40;;
13114;SDS011;6623;52.120;8.660;2023-02-11T09:39:49;43.30;;;25.63;;
13114;SDS011;6623;52.120;8.660;2023-02-11T09:42:19;43.17;;;24.73;;
13114;SDS011;6623;52.120;8.660;2023-02-11T09:45:16;45.80;;;25.93;;
13114;SDS011;6623;52.120;8.660;2023-02-11T09:48:02;40.93;;;25.20;;
13114;SDS011;6623;52.120;8.660;2023-02-11T09:50:42;46.07;;;25.53;;
13114;SDS011;6623;52.120;8.660;2023-02-11T09:53:14;42.33;;;26.20;;
13114;SDS011;6623;52.120;8.660;2023-02-11T09:55:45;40.17;;;26.00;;
13114;SDS011;6623;52.120;8.660;2023-02-11T09:58:30;41.57;;;27.13;;
13114;SDS011;6623;52.120;8.660;2023-02-11T10:03:48;43.53;;;26.30;;
13114;SDS011;6623;52.120;8.660;2023-02-11T10:14:41;40.67;;;25.00;;
13114;SDS011;6623;52.120;8.660;2023-02-11T10:22:52;35.77;;;22.93;;
13114;SDS011;6623;52.120;8.660;2023-02-11T10:28:10;40.40;;;24.27;;
13114;SDS011;6623;52.120;8.660;2023-02-11T10:31:00;45.90;;;25.77;;
13114;SDS011;6623;52.120;8.660;2023-02-11T10:33:28;46.37;;;25.70;;
13114;SDS011;6623;52.120;8.660;2023-02-11T10:36:12;43.10;;;26.80;;
13114;SDS011;6623;52.120;8.660;2023-02-11T10:38:42;44.73;;;26.80;;
13114;SDS011;6623;52.120;8.660;2023-02-11T10:41:21;47.70;;;25.77;;
13114;SDS011;6623;52.120;8.660;2023-02-11T10:43:54;39.30;;;25.40;;
13114;SDS011;6623;52.120;8.660;2023-02-11T10:46:25;43.70;;;26.17;;
13114;SDS011;6623;52.120;8.660;2023-02-11T10:49:04;46.23;;;25.30;;
13114;SDS011;6623;52.120;8.660;2023-02-11T10:51:30;43.03;;;24.23;;
13114;SDS011;6623;52.120;8.660;2023-02-11T10:56:35;40.80;;;25.10;;
13114;SDS011;6623;52.120;8.660;2023-02-11T11:01:52;36.53;;;24.13;;
13114;SDS011;6623;52.120;8.660;2023-02-11T11:07:20;37.30;;;24.17;;
13114;SDS011;6623;52.120;8.660;2023-02-11T11:09:55;35.53;;;23.10;;
13114;SDS011;6623;52.120;8.660;2023-02-11T11:14:55;31.60;;;23.00;;
13114;SDS011;6623;52.120;8.660;2023-02-11T11:17:23;37.77;;;23.17;;
13114;SDS011;6623;52.120;8.660;2023-02-11T11:19:52;31.23;;;21.37;;
13114;SDS011;6623;52.120;8.660;2023-02-11T11:22:37;30.90;;;21.17;;
13114;SDS011;6623;52.120;8.660;2023-02-11T11:25:03;33.33;;;21.73;;
13114;SDS011;6623;52.120;8.660;2023-02-11T11:27:29;31.23;;;20.93;;
13114;SDS011;6623;52.120;8.660;2023-02-11T11:29:54;32.07;;;20.87;;
13114;SDS011;6623;52.120;8.660;2023-02-11T11:32:30;30.53;;;19.93;;
13114;SDS011;6623;52.120;8.660;2023-02-11T11:35:02;30.03;;;20.03;;
13114;SDS011;6623;52.120;8.660;2023-02-11T11:37:32;29.43;;;20.17;;
13114;SDS011;6623;52.120;8.660;2023-02-11T11:40:07;31.03;;;20.27;;
13114;SDS011;6623;52.120;8.660;2023-02-11T11:42:39;29.70;;;20.97;;
13114;SDS011;6623;52.120;8.660;2023-02-11T11:50:55;29.67;;;19.63;;
13114;SDS011;6623;52.120;8.660;2023-02-11T11:53:29;27.60;;;18.53;;
13114;SDS011;6623;52.120;8.660;2023-02-11T11:56:13;27.47;;;18.63;;
13114;SDS011;6623;52.120;8.660;2023-02-11T11:58:43;29.70;;;19.93;;
13114;SDS011;6623;52.120;8.660;2023-02-11T12:20:16;27.60;;;18.83;;
13114;SDS011;6623;52.120;8.660;2023-02-11T12:22:53;34.90;;;19.50;;
13114;SDS011;6623;52.120;8.660;2023-02-11T12:25:53;25.03;;;17.67;;
13114;SDS011;6623;52.120;8.660;2023-02-11T12:34:21;29.10;;;19.97;;
13114;SDS011;6623;52.120;8.660;2023-02-11T12:48:43;32.80;;;20.30;;
13114;SDS011;6623;52.120;8.660;2023-02-11T12:54:22;35.47;;;21.87;;
13114;SDS011;6623;52.120;8.660;2023-02-11T12:56:54;39.47;;;21.60;;
13114;SDS011;6623;52.120;8.660;2023-02-11T13:01:58;34.53;;;22.23;;
13114;SDS011;6623;52.120;8.660;2023-02-11T13:04:32;34.30;;;21.57;;
13114;SDS011;6623;52.120;8.660;2023-02-11T13:07:04;32.43;;;21.50;;
13114;SDS011;6623;52.120;8.660;2023-02-11T13:10:05;30.77;;;19.67;;
13114;SDS011;6623;52.120;8.660;2023-02-11T13:12:33;32.90;;;20.23;;
13114;SDS011;6623;52.120;8.660;2023-02-11T13:15:25;32.40;;;21.60;;
13114;SDS011;6623;52.120;8.660;2023-02-11T13:17:53;33.40;;;20.10;;
13114;SDS011;6623;52.120;8.660;2023-02-11T13:21:07;30.40;;;18.60;;
13114;SDS011;6623;52.120;8.660;2023-02-11T13:23:40;32.67;;;21.27;;
13114;SDS011;6623;52.120;8.660;2023-02-11T13:29:19;35.37;;;20.60;;
13114;SDS011;6623;52.120;8.660;2023-02-11T13:31:51;28.00;;;20.33;;
13114;SDS011;6623;52.120;8.660;2023-02-11T13:34:22;32.83;;;19.73;;
13114;SDS011;6623;52.120;8.660;2023-02-11T13:36:55;34.73;;;20.90;;
13114;SDS011;6623;52.120;8.660;2023-02-11T13:39:21;34.20;;;20.17;;
13114;SDS011;6623;52.120;8.660;2023-02-11T13:41:48;34.23;;;20.83;;
13114;SDS011;6623;52.120;8.660;2023-02-11T13:44:17;31.27;;;20.23;;
13114;SDS011;6623;52.120;8.660;2023-02-11T13:46:48;32.87;;;20.57;;
13114;SDS011;6623;52.120;8.660;2023-02-11T13:50:00;29.87;;;19.77;;
13114;SDS011;6623;52.120;8.660;2023-02-11T13:52:10;32.10;;;19.20;;
13114;SDS011;6623;52.120;8.660;2023-02-11T13:55:06;32.90;;;19.30;;
13114;SDS011;6623;52.120;8.660;2023-02-11T13:57:40;34.80;;;19.40;;
13114;SDS011;6623;52.120;8.660;2023-02-11T14:03:22;31.30;;;20.03;;
13114;SDS011;6623;52.120;8.660;2023-02-11T14:06:19;31.97;;;20.63;;
13114;SDS011;6623;52.120;8.660;2023-02-11T14:09:31;34.47;;;20.17;;
13114;SDS011;6623;52.120;8.660;2023-02-11T14:14:57;29.83;;;19.03;;
13114;SDS011;6623;52.120;8.660;2023-02-11T14:17:43;30.50;;;19.10;;
13114;SDS011;6623;52.120;8.660;2023-02-11T14:23:16;29.50;;;20.53;;
13114;SDS011;6623;52.120;8.660;2023-02-11T14:25:51;35.30;;;19.87;;
13114;SDS011;6623;52.120;8.660;2023-02-11T14:34:36;31.03;;;20.17;;
13114;SDS011;6623;52.120;8.660;2023-02-11T14:37:13;31.07;;;20.50;;
13114;SDS011;6623;52.120;8.660;2023-02-11T14:40:17;33.03;;;19.90;;
13114;SDS011;6623;52.120;8.660;2023-02-11T14:42:53;30.83;;;20.87;;
13114;SDS011;6623;52.120;8.660;2023-02-11T14:45:21;34.63;;;21.73;;
13114;SDS011;6623;52.120;8.660;2023-02-11T14:47:50;32.57;;;20.77;;
13114;SDS011;6623;52.120;8.660;2023-02-11T14:50:35;33.03;;;20.77;;
13114;SDS011;6623;52.120;8.660;2023-02-11T14:53:14;30.00;;;19.80;;
13114;SDS011;6623;52.120;8.660;2023-02-11T14:55:42;30.70;;;20.03;;
13114;SDS011;6623;52.120;8.660;2023-02-11T15:03:35;28.07;;;19.43;;
13114;SDS011;6623;52.120;8.660;2023-02-11T15:08:28;30.77;;;20.50;;
13114;SDS011;6623;52.120;8.660;2023-02-11T15:10:55;31.70;;;20.07;;
13114;SDS011;6623;52.120;8.660;2023-02-11T15:13:22;36.70;;;21.53;;
13114;SDS011;6623;52.120;8.660;2023-02-11T15:15:52;31.03;;;19.80;;
13114;SDS011;6623;52.120;8.660;2023-02-11T15:18:47;30.50;;;20.27;;
13114;SDS011;6623;52.120;8.660;2023-02-11T15:21:31;33.13;;;20.03;;
13114;SDS011;6623;52.120;8.660;2023-02-11T15:24:19;31.43;;;20.73;;
13114;SDS011;6623;52.120;8.660;2023-02-11T15:27:21;32.63;;;21.73;;
13114;SDS011;6623;52.120;8.660;2023-02-11T15:29:42;33.67;;;21.03;;
13114;SDS011;6623;52.120;8.660;2023-02-11T15:32:20;30.63;;;21.60;;
13114;SDS011;6623;52.120;8.660;2023-02-11T15:34:48;32.33;;;20.67;;
13114;SDS011;6623;52.120;8.660;2023-02-11T15:37:18;32.63;;;22.07;;
13114;SDS011;6623;52.120;8.660;2023-02-11T15:39:50;30.93;;;20.93;;
13114;SDS011;6623;52.120;8.660;2023-02-11T15:42:24;33.77;;;21.63;;
13114;SDS011;6623;52.120;8.660;2023-02-11T15:47:38;37.00;;;22.57;;
13114;SDS011;6623;52.120;8.660;2023-02-11T15:50:06;35.10;;;22.30;;
13114;SDS011;6623;52.120;8.660;2023-02-11T15:52:43;32.13;;;21.80;;
13114;SDS011;6623;52.120;8.660;2023-02-11T15:55:11;32.47;;;20.93;;
13114;SDS011;6623;52.120;8.660;2023-02-11T15:57:46;32.83;;;21.10;;
13114;SDS011;6623;52.120;8.660;2023-02-11T16:00:22;35.97;;;22.83;;
13114;SDS011;6623;52.120;8.660;2023-02-11T16:02:50;31.17;;;22.00;;
13114;SDS011;6623;52.120;8.660;2023-02-11T16:05:30;35.53;;;23.23;;
13114;SDS011;6623;52.120;8.660;2023-02-11T16:07:58;32.00;;;22.20;;
13114;SDS011;6623;52.120;8.660;2023-02-11T16:15:41;34.00;;;21.60;;
13114;SDS011;6623;52.120;8.660;2023-02-11T16:20:39;36.00;;;22.53;;
13114;SDS011;6623;52.120;8.660;2023-02-11T16:23:05;30.67;;;21.70;;
13114;SDS011;6623;52.120;8.660;2023-02-11T16:25:33;32.63;;;21.90;;
13114;SDS011;6623;52.120;8.660;2023-02-11T16:27:59;31.37;;;21.13;;
13114;SDS011;6623;52.120;8.660;2023-02-11T16:33:01;33.77;;;21.63;;
13114;SDS011;6623;52.120;8.660;2023-02-11T16:35:28;34.23;;;21.40;;
13114;SDS011;6623;52.120;8.660;2023-02-11T16:37:54;34.40;;;22.23;;
13114;SDS011;6623;52.120;8.660;2023-02-11T16:40:19;33.27;;;21.37;;
13114;SDS011;6623;52.120;8.660;2023-02-11T16:42:47;32.50;;;21.27;;
13114;SDS011;6623;52.120;8.660;2023-02-11T16:45:13;34.53;;;21.70;;
13114;SDS011;6623;52.120;8.660;2023-02-11T16:47:39;32.37;;;21.37;;
13114;SDS011;6623;52.120;8.660;2023-02-11T16:50:07;34.53;;;23.47;;
13114;SDS011;6623;52.120;8.660;2023-02-11T16:52:44;33.87;;;22.37;;
13114;SDS011;6623;52.120;8.660;2023-02-11T16:55:11;30.80;;;22.53;;
13114;SDS011;6623;52.120;8.660;2023-02-11T16:57:37;31.23;;;22.00;;
13114;SDS011;6623;52.120;8.660;2023-02-11T17:00:03;33.83;;;21.70;;
13114;SDS011;6623;52.120;8.660;2023-02-11T17:02:32;34.73;;;22.87;;
13114;SDS011;6623;52.120;8.660;2023-02-11T17:05:00;33.77;;;23.30;;
13114;SDS011;6623;52.120;8.660;2023-02-11T17:07:31;33.13;;;21.50;;
13114;SDS011;6623;52.120;8.660;2023-02-11T17:09:57;37.23;;;22.20;;
13114;SDS011;6623;52.120;8.660;2023-02-11T17:12:22;32.27;;;22.23;;
13114;SDS011;6623;52.120;8.660;2023-02-11T17:14:51;32.07;;;22.70;;
13114;SDS011;6623;52.120;8.660;2023-02-11T17:17:17;40.03;;;21.97;;